Time;durP1;ratioP1;P1;durP2;ratioP2;P2;SDS_P1;SDS_P2;PMS_P1;PMS_P2;Temp;Humidity;BMP_temperature;BMP_pressure;BME280_temperature;BME280_humidity;BME280_pressure;Samples;Min_cycle;Max_cycle;Signal;HPM_P1;HPM_P2
2021/10/31 00:02:11;;;;;;;;;;;;;;;;;;5103743;28;19900;-71
2021/10/31 00:04:37;;;;;;;;;;;;;;;;;;5096461;28;19908;-70
2021/10/31 00:07:02;;;;;;;;;;;;;;;;;;5105094;28;20224;-71
2021/10/31 00:09:29;;;;;;;;;;;;;;;;;;5106059;28;20244;-71
2021/10/31 00:11:54;;;;;;;;;;;;;;;;;;5104260;28;19900;-71
2021/10/31 00:14:19;;;;;;;;;;;;;;;;;;5104649;28;19972;-71
2021/10/31 00:16:44;;;;;;;;;;;;;;;;;;5105746;28;19940;-71
2021/10/31 00:19:11;;;;;;;;;;;;;;;;;;5105607;28;20093;-71
2021/10/31 00:21:36;;;;;;;;;;;;;;;;;;5104533;28;19963;-72
2021/10/31 00:24:01;;;;;;;;;;;;;;;;;;5103576;28;19908;-71
2021/10/31 00:26:26;;;;;;;;;;;;;;;;;;5108703;28;19896;-71
2021/10/31 00:28:52;;;;;;;;;;;;;;;;;;5105741;28;19946;-71
2021/10/31 00:31:17;;;;;;;;;;;;;;;;;;5106379;28;19900;-71
2021/10/31 00:33:42;;;;;;;;;;;;;;;;;;5105026;28;19926;-71
2021/10/31 00:36:07;;;;;;;;;;;;;;;;;;5103241;28;20022;-71
2021/10/31 00:38:32;;;;;;;;;;;;;;;;;;5105658;28;19934;-72
2021/10/31 00:40:58;;;;;;;;;;;;;;;;;;5105377;28;19964;-72
2021/10/31 00:43:23;;;;;;;;;;;;;;;;;;5106329;28;19908;-71
2021/10/31 00:45:49;;;;;;;;;;;;;;;;;;5104400;28;19930;-71
2021/10/31 00:48:14;;;;;;;;;;;;;;;;;;5103696;28;19918;-72
2021/10/31 00:50:39;;;;;;;;;;;;;;;;;;5103980;28;19934;-71
2021/10/31 00:53:05;;;;;;;;;;;;;;;;;;5101134;28;19896;-72
2021/10/31 00:55:30;;;;;;;;;;;;;;;;;;5109729;28;19915;-72
2021/10/31 00:57:55;;;;;;;;;;;;;;;;;;5113174;28;19909;-71
2021/10/31 01:00:20;;;;;;;;;;;;;;;;;;5104615;28;19928;-71
2021/10/31 01:02:45;;;;;;;;;;;;;;;;;;5103249;28;19912;-71
2021/10/31 01:05:11;;;;;;;;;;;;;;;;;;5112071;28;19986;-72
2021/10/31 01:07:36;;;;;;;;;;;;;;;;;;5105238;28;19927;-72
2021/10/31 01:10:01;;;;;;;;;;;;;;;;;;5104783;28;19911;-71
2021/10/31 01:12:26;;;;;;;;;;;;;;;;;;5101777;28;20160;-71
2021/10/31 01:14:52;;;;;;;;;;;;;;;;;;5102714;28;19911;-72
2021/10/31 01:17:17;;;;;;;;;;;;;;;;;;5102744;28;19903;-71
2021/10/31 01:19:42;;;;;;;;;;;;;;;;;;5106520;28;19901;-71
2021/10/31 01:22:07;;;;;;;;;;;;;;;;;;5105512;28;19992;-72
2021/10/31 01:24:33;;;;;;;;;;;;;;;;;;5104161;28;19936;-72
2021/10/31 01:26:58;;;;;;;;;;;;;;;;;;5103795;28;19938;-71
2021/10/31 01:29:23;;;;;;;;;;;;;;;;;;5105714;28;19911;-71
2021/10/31 01:31:48;;;;;;;;;;;;;;;;;;5105091;28;19916;-71
2021/10/31 01:34:13;;;;;;;;;;;;;;;;;;5103053;28;19896;-71
2021/10/31 01:36:39;;;;;;;;;;;;;;;;;;5102989;28;19956;-71
2021/10/31 01:39:04;;;;;;;;;;;;;;;;;;5102755;28;19901;-71
2021/10/31 01:41:29;;;;;;;;;;;;;;;;;;5104979;28;19990;-71
2021/10/31 01:43:54;;;;;;;;;;;;;;;;;;5105588;28;19907;-71
2021/10/31 01:46:20;;;;;;;;;;;;;;;;;;5106488;28;19920;-71
2021/10/31 01:48:45;;;;;;;;;;;;;;;;;;5100443;28;19974;-71
2021/10/31 01:51:10;;;;;;;;;;;;;;;;;;5105771;28;19932;-71
2021/10/31 01:53:35;;;;;;;;;;;;;;;;;;5104393;28;19909;-72
2021/10/31 01:56:01;;;;;;;;;;;;;;;;;;5107468;28;19900;-72
2021/10/31 01:58:26;;;;;;;;;;;;;;;;;;5104991;28;19904;-72
2021/10/31 02:00:52;;;;;;;;;;;;;;;;;;5102343;28;19939;-71
2021/10/31 02:03:17;;;;;;;;;;;;;;;;;;5101833;28;19913;-71
2021/10/31 02:05:42;;;;;;;;;;;;;;;;;;5111726;28;19912;-71
2021/10/31 02:08:07;;;;;;;;;;;;;;;;;;5112149;28;19934;-72
2021/10/31 02:10:33;;;;;;;;;;;;;;;;;;5112650;28;19924;-71
2021/10/31 02:12:58;;;;;;;;;;;;;;;;;;5101722;28;19909;-71
2021/10/31 02:15:23;;;;;;;;;;;;;;;;;;5105746;28;19943;-72
2021/10/31 02:17:49;;;;;;;;;;;;;;;;;;5100810;28;19911;-71
2021/10/31 02:20:14;;;;;;;;;;;;;;;;;;5104254;28;19905;-71
2021/10/31 02:22:39;;;;;;;;;;;;;;;;;;5104480;28;19912;-72
2021/10/31 02:25:05;;;;;;;;;;;;;;;;;;5102661;28;20185;-71
2021/10/31 02:27:30;;;;;;;;;;;;;;;;;;5105212;28;19908;-72
2021/10/31 02:29:55;;;;;;;;;;;;;;;;;;5101528;28;19904;-71
2021/10/31 02:32:21;;;;;;;;;;;;;;;;;;5103509;28;19900;-72
2021/10/31 02:34:47;;;;;;;;;;;;;;;;;;5103879;28;19963;-72
2021/10/31 02:37:12;;;;;;;;;;;;;;;;;;5103556;28;20148;-72
2021/10/31 02:39:37;;;;;;;;;;;;;;;;;;5103563;28;19979;-71
2021/10/31 02:42:02;;;;;;;;;;;;;;;;;;5100479;28;19935;-72
2021/10/31 02:44:27;;;;;;;;;;;;;;;;;;5102198;28;19919;-72
2021/10/31 02:46:53;;;;;;;;;;;;;;;;;;5100902;28;19912;-72
2021/10/31 02:49:19;;;;;;;;;;;;;;;;;;5105819;28;19909;-72
2021/10/31 02:51:44;;;;;;;;;;;;;;;;;;5103544;28;19912;-72
2021/10/31 02:54:10;;;;;;;;;;;;;;;;;;5103418;28;19908;-72
2021/10/31 02:56:35;;;;;;;;;;;;;;;;;;5100125;28;19932;-71
2021/10/31 02:59:00;;;;;;;;;;;;;;;;;;5106693;28;19919;-72
2021/10/31 03:01:25;;;;;;;;;;;;;;;;;;5104277;28;20026;-72
2021/10/31 03:03:54;;;;;;;;;;;;;;;;;;5104274;28;19900;-72
2021/10/31 03:06:19;;;;;;;;;;;;;;;;;;5102733;28;19947;-71
2021/10/31 03:08:45;;;;;;;;;;;;;;;;;;5096002;28;19904;-72
2021/10/31 03:11:10;;;;;;;;;;;;;;;;;;5104613;28;19959;-72
2021/10/31 03:13:35;;;;;;;;;;;;;;;;;;5106248;28;19924;-72
2021/10/31 03:16:00;;;;;;;;;;;;;;;;;;5106459;28;19900;-71
2021/10/31 03:18:26;;;;;;;;;;;;;;;;;;5105301;28;19983;-72
2021/10/31 03:20:51;;;;;;;;;;;;;;;;;;5108409;28;19907;-72
2021/10/31 03:23:16;;;;;;;;;;;;;;;;;;5107469;28;19987;-72
2021/10/31 03:25:41;;;;;;;;;;;;;;;;;;5105823;28;19907;-72
2021/10/31 03:28:06;;;;;;;;;;;;;;;;;;5102950;28;19919;-72
2021/10/31 03:30:32;;;;;;;;;;;;;;;;;;5107260;28;19915;-72
2021/10/31 03:32:57;;;;;;;;;;;;;;;;;;5106689;28;19908;-72
2021/10/31 03:35:22;;;;;;;;;;;;;;;;;;5105004;28;20225;-72
2021/10/31 03:37:47;;;;;;;;;;;;;;;;;;5108653;28;19908;-72
2021/10/31 03:40:13;;;;;;;;;;;;;;;;;;5105883;28;19909;-72
2021/10/31 03:42:38;;;;;;;;;;;;;;;;;;5106186;28;19939;-72
2021/10/31 03:45:05;;;;;;;;;;;;;;;;;;5107964;28;19923;-72
2021/10/31 03:47:33;;;;;;;;;;;;;;;;;;5108122;28;19922;-72
2021/10/31 03:49:58;;;;;;;;;;;;;;;;;;5116181;28;19908;-72
2021/10/31 03:52:23;;;;;;;;;;;;;;;;;;5108235;28;19909;-72
2021/10/31 03:54:48;;;;;;;;;;;;;;;;;;5104176;28;19999;-72
2021/10/31 03:57:13;;;;;;;;;;;;;;;;;;5103942;28;19924;-72
2021/10/31 03:59:39;;;;;;;;;;;;;;;;;;5103361;28;20226;-72
2021/10/31 04:02:04;;;;;;;;;;;;;;;;;;5106528;28;20153;-72
2021/10/31 04:04:29;;;;;;;;;;;;;;;;;;5106756;28;19912;-72
2021/10/31 04:06:54;;;;;;;;;;;;;;;;;;5105598;28;19900;-72
2021/10/31 04:09:20;;;;;;;;;;;;;;;;;;5105503;28;19908;-72
2021/10/31 04:11:45;;;;;;;;;;;;;;;;;;5106857;28;19927;-72
2021/10/31 04:14:10;;;;;;;;;;;;;;;;;;5101809;28;19911;-72
2021/10/31 04:16:35;;;;;;;;;;;;;;;;;;5102569;28;19901;-72
2021/10/31 04:19:01;;;;;;;;;;;;;;;;;;5104738;28;19931;-73
2021/10/31 04:21:26;;;;;;;;;;;;;;;;;;5105013;28;20205;-72
2021/10/31 04:23:51;;;;;;;;;;;;;;;;;;5113610;28;19953;-72
2021/10/31 04:26:16;;;;;;;;;;;;;;;;;;5100641;28;19982;-71
2021/10/31 04:28:42;;;;;;;;;;;;;;;;;;5107425;28;19912;-72
2021/10/31 04:31:07;;;;;;;;;;;;;;;;;;5105117;28;19908;-71
2021/10/31 04:33:34;;;;;;;;;;;;;;;;;;5105862;28;19958;-72
2021/10/31 04:35:59;;;;;;;;;;;;;;;;;;5105378;28;19916;-71
2021/10/31 04:38:28;;;;;;;;;;;;;;;;;;5105382;28;19922;-71
2021/10/31 04:40:54;;;;;;;;;;;;;;;;;;5107928;28;19908;-71
2021/10/31 04:43:22;;;;;;;;;;;;;;;;;;5104544;28;19934;-71
2021/10/31 04:45:48;;;;;;;;;;;;;;;;;;5105076;28;19901;-71
2021/10/31 04:48:13;;;;;;;;;;;;;;;;;;5106691;28;19904;-72
2021/10/31 04:50:38;;;;;;;;;;;;;;;;;;5106304;28;19913;-72
2021/10/31 04:53:05;;;;;;;;;;;;;;;;;;5104005;28;19900;-72
2021/10/31 04:55:31;;;;;;;;;;;;;;;;;;5114178;28;19910;-72
2021/10/31 04:57:57;;;;;;;;;;;;;;;;;;5104712;28;19900;-72
2021/10/31 05:00:22;;;;;;;;;;;;;;;;;;5104644;28;19897;-72
2021/10/31 05:02:47;;;;;;;;;;;;;;;;;;5103213;28;20172;-72
2021/10/31 05:05:12;;;;;;;;;;;;;;;;;;5105456;28;19915;-72
2021/10/31 05:07:38;;;;;;;;;;;;;;;;;;5107969;28;19915;-72
2021/10/31 05:10:03;;;;;;;;;;;;;;;;;;5105408;28;19908;-71
2021/10/31 05:12:28;;;;;;;;;;;;;;;;;;5103955;28;19927;-72
2021/10/31 05:14:53;;;;;;;;;;;;;;;;;;5104614;28;19900;-72
2021/10/31 05:17:19;;;;;;;;;;;;;;;;;;5105571;28;19932;-72
2021/10/31 05:19:44;;;;;;;;;;;;;;;;;;5111077;28;19897;-72
2021/10/31 05:22:09;;;;;;;;;;;;;;;;;;5106019;28;19942;-72
2021/10/31 05:24:34;;;;;;;;;;;;;;;;;;5104202;28;19971;-71
2021/10/31 05:26:59;;;;;;;;;;;;;;;;;;5113926;28;19923;-72
2021/10/31 05:29:25;;;;;;;;;;;;;;;;;;5101628;28;19958;-71
2021/10/31 05:31:50;;;;;;;;;;;;;;;;;;5104761;28;20111;-72
2021/10/31 05:34:15;;;;;;;;;;;;;;;;;;5104239;28;19954;-71
2021/10/31 05:36:40;;;;;;;;;;;;;;;;;;5104897;28;19896;-71
2021/10/31 05:39:06;;;;;;;;;;;;;;;;;;5101490;28;19925;-71
2021/10/31 05:41:31;;;;;;;;;;;;;;;;;;5107326;28;19937;-72
2021/10/31 05:43:56;;;;;;;;;;;;;;;;;;5101560;28;19900;-71
2021/10/31 05:46:21;;;;;;;;;;;;;;;;;;5103774;28;19907;-72
2021/10/31 05:48:47;;;;;;;;;;;;;;;;;;5103746;28;19909;-72
2021/10/31 05:51:13;;;;;;;;;;;;;;;;;;5103452;28;19972;-71
2021/10/31 05:53:38;;;;;;;;;;;;;;;;;;5103573;28;19911;-71
2021/10/31 05:56:04;;;;;;;;;;;;;;;;;;5103619;28;19911;-71
2021/10/31 05:58:30;;;;;;;;;;;;;;;;;;5106119;28;19908;-72
2021/10/31 06:00:55;;;;;;;;;;;;;;;;;;5105453;28;19940;-71
2021/10/31 06:03:20;;;;;;;;;;;;;;;;;;5103696;28;19915;-73
2021/10/31 06:05:47;;;;;;;;;;;;;;;;;;5104720;28;19912;-73
2021/10/31 06:08:15;;;;;;;;;;;;;;;;;;5102373;28;20240;-73
2021/10/31 06:10:41;;;;;;;;;;;;;;;;;;5101788;28;19971;-72
2021/10/31 06:13:06;;;;;;;;;;;;;;;;;;5104108;28;19909;-73
2021/10/31 06:15:31;;;;;;;;;;;;;;;;;;5102178;28;19968;-72
2021/10/31 06:17:56;;;;;;;;;;;;;;;;;;5103575;28;19904;-72
2021/10/31 06:20:22;;;;;;;;;;;;;;;;;;5101789;28;19907;-72
2021/10/31 06:22:47;;;;;;;;;;;;;;;;;;5100736;28;20156;-73
2021/10/31 06:25:12;;;;;;;;;;;;;;;;;;5100817;28;19901;-73
2021/10/31 06:27:37;;;;;;;;;;;;;;;;;;5105096;28;20213;-73
2021/10/31 06:30:02;;;;;;;;;;;;;;;;;;5102227;28;19919;-73
2021/10/31 06:32:28;;;;;;;;;;;;;;;;;;5111080;28;20258;-73
2021/10/31 06:34:53;;;;;;;;;;;;;;;;;;5105252;28;19908;-73
2021/10/31 06:37:18;;;;;;;;;;;;;;;;;;5103187;28;19907;-73
2021/10/31 06:39:43;;;;;;;;;;;;;;;;;;5103604;28;20106;-73
2021/10/31 06:42:08;;;;;;;;;;;;;;;;;;5104726;28;19952;-74
2021/10/31 06:44:34;;;;;;;;;;;;;;;;;;5103103;28;19900;-73
2021/10/31 06:46:59;;;;;;;;;;;;;;;;;;5105470;28;19913;-73
2021/10/31 06:49:25;;;;;;;;;;;;;;;;;;5107127;28;19980;-74
2021/10/31 06:51:50;;;;;;;;;;;;;;;;;;5101053;28;19919;-73
2021/10/31 06:54:15;;;;;;;;;;;;;;;;;;5102648;28;19957;-73
2021/10/31 06:56:40;;;;;;;;;;;;;;;;;;5101441;28;19907;-73
2021/10/31 06:59:05;;;;;;;;;;;;;;;;;;5100319;28;19908;-72
2021/10/31 07:01:31;;;;;;;;;;;;;;;;;;5110685;28;19911;-72
2021/10/31 07:03:56;;;;;;;;;;;;;;;;;;5111837;28;19924;-72
2021/10/31 07:06:21;;;;;;;;;;;;;;;;;;5103478;28;19931;-71
2021/10/31 07:08:46;;;;;;;;;;;;;;;;;;5105278;28;20190;-72
2021/10/31 07:11:12;;;;;;;;;;;;;;;;;;5100679;28;19900;-72
2021/10/31 07:13:37;;;;;;;;;;;;;;;;;;5103194;28;20348;-72
2021/10/31 07:16:02;;;;;;;;;;;;;;;;;;5103461;28;19963;-72
2021/10/31 07:18:27;;;;;;;;;;;;;;;;;;5112009;28;19988;-72
2021/10/31 07:20:52;;;;;;;;;;;;;;;;;;5106116;28;19908;-73
2021/10/31 07:23:18;;;;;;;;;;;;;;;;;;5101910;28;19908;-73
2021/10/31 07:25:43;;;;;;;;;;;;;;;;;;5103155;28;19919;-72
2021/10/31 07:28:08;;;;;;;;;;;;;;;;;;5101645;28;19944;-73
2021/10/31 07:30:33;;;;;;;;;;;;;;;;;;5104912;28;19908;-73
2021/10/31 07:32:59;;;;;;;;;;;;;;;;;;5106856;28;19978;-71
2021/10/31 07:35:24;;;;;;;;;;;;;;;;;;5108320;28;19901;-72
2021/10/31 07:37:49;;;;;;;;;;;;;;;;;;5101492;28;19965;-71
2021/10/31 07:40:15;;;;;;;;;;;;;;;;;;5104875;28;19911;-73
2021/10/31 07:42:40;;;;;;;;;;;;;;;;;;5104378;28;19991;-72
2021/10/31 07:45:05;;;;;;;;;;;;;;;;;;5101839;28;20225;-72
2021/10/31 07:47:30;;;;;;;;;;;;;;;;;;5101365;28;19927;-72
2021/10/31 07:49:56;;;;;;;;;;;;;;;;;;5100726;28;19900;-73
2021/10/31 07:52:21;;;;;;;;;;;;;;;;;;5104201;28;19932;-72
2021/10/31 07:54:47;;;;;;;;;;;;;;;;;;5107569;28;19975;-74
2021/10/31 07:57:12;;;;;;;;;;;;;;;;;;5106977;28;19901;-74
2021/10/31 07:59:37;;;;;;;;;;;;;;;;;;5104033;28;19912;-74
2021/10/31 08:02:04;;;;;;;;;;;;;;;;;;5106087;28;20038;-74
2021/10/31 08:04:30;;;;;;;;;;;;;;;;;;5103769;28;19916;-74
2021/10/31 08:06:55;;;;;;;;;;;;;;;;;;5099973;28;19909;-74
2021/10/31 08:09:20;;;;;;;;;;;;;;;;;;5112883;28;19930;-75
2021/10/31 08:11:45;;;;;;;;;;;;;;;;;;5106144;28;19904;-75
2021/10/31 08:14:11;;;;;;;;;;;;;;;;;;5106116;28;19900;-75
2021/10/31 08:16:37;;;;;;;;;;;;;;;;;;5103721;28;19908;-75
2021/10/31 08:19:02;;;;;;;;;;;;;;;;;;5103196;28;19904;-73
2021/10/31 08:21:28;;;;;;;;;;;;;;;;;;5112405;28;19900;-74
2021/10/31 08:23:53;;;;;;;;;;;;;;;;;;5102733;28;19954;-74
2021/10/31 08:26:18;;;;;;;;;;;;;;;;;;5102235;28;19908;-73
2021/10/31 08:28:44;;;;;;;;;;;;;;;;;;5102888;28;19927;-73
2021/10/31 08:31:09;;;;;;;;;;;;;;;;;;5105763;28;19901;-75
2021/10/31 08:33:35;;;;;;;;;;;;;;;;;;5103646;28;19927;-74
2021/10/31 08:36:01;;;;;;;;;;;;;;;;;;5104979;28;19904;-73
2021/10/31 08:38:26;;;;;;;;;;;;;;;;;;5101725;28;19927;-74
2021/10/31 08:40:51;;;;;;;;;;;;;;;;;;5102363;28;20228;-74
2021/10/31 08:43:16;;;;;;;;;;;;;;;;;;5102299;28;19979;-74
2021/10/31 08:45:42;;;;;;;;;;;;;;;;;;5102188;28;19939;-74
2021/10/31 08:48:07;;;;;;;;;;;;;;;;;;5111401;28;19908;-73
2021/10/31 08:50:32;;;;;;;;;;;;;;;;;;5107154;28;19923;-74
2021/10/31 08:52:57;;;;;;;;;;;;;;;;;;5104704;28;19916;-74
2021/10/31 08:55:23;;;;;;;;;;;;;;;;;;5103948;28;19959;-75
2021/10/31 08:57:48;;;;;;;;;;;;;;;;;;5103597;28;19959;-74
2021/10/31 09:00:13;;;;;;;;;;;;;;;;;;5104090;28;19966;-74
2021/10/31 09:02:38;;;;;;;;;;;;;;;;;;5111133;28;19912;-74
2021/10/31 09:05:04;;;;;;;;;;;;;;;;;;5104097;28;19908;-74
2021/10/31 09:07:29;;;;;;;;;;;;;;;;;;5110549;28;19908;-74
2021/10/31 09:09:54;;;;;;;;;;;;;;;;;;5101743;28;20179;-76
2021/10/31 09:12:19;;;;;;;;;;;;;;;;;;5103896;28;19908;-76
2021/10/31 09:14:45;;;;;;;;;;;;;;;;;;5101527;28;20206;-76
2021/10/31 09:17:10;;;;;;;;;;;;;;;;;;5103969;28;19930;-75
2021/10/31 09:19:35;;;;;;;;;;;;;;;;;;5100960;28;19901;-75
2021/10/31 09:22:01;;;;;;;;;;;;;;;;;;5103144;28;19958;-74
2021/10/31 09:24:26;;;;;;;;;;;;;;;;;;5104762;28;19919;-74
2021/10/31 09:26:51;;;;;;;;;;;;;;;;;;5105655;28;19943;-74
2021/10/31 09:29:16;;;;;;;;;;;;;;;;;;5102732;28;19907;-74
2021/10/31 09:31:41;;;;;;;;;;;;;;;;;;5105559;28;19900;-74
2021/10/31 09:34:07;;;;;;;;;;;;;;;;;;5106098;28;19944;-74
2021/10/31 09:36:35;;;;;;;;;;;;;;;;;;5111773;28;19908;-74
2021/10/31 09:39:02;;;;;;;;;;;;;;;;;;5103634;28;19999;-74
2021/10/31 09:41:30;;;;;;;;;;;;;;;;;;5101348;28;19900;-75
2021/10/31 09:44:04;;;;;;;;;;;;;;;;;;5102038;28;19900;-74
2021/10/31 09:46:29;;;;;;;;;;;;;;;;;;5103250;28;19922;-75
2021/10/31 09:48:55;;;;;;;;;;;;;;;;;;5103318;28;19974;-75
2021/10/31 09:51:20;;;;;;;;;;;;;;;;;;5103004;28;19912;-73
2021/10/31 09:53:45;;;;;;;;;;;;;;;;;;5103510;28;19901;-73
2021/10/31 09:56:11;;;;;;;;;;;;;;;;;;5102186;28;19949;-73
2021/10/31 09:58:39;;;;;;;;;;;;;;;;;;5103475;28;19908;-73
2021/10/31 10:01:06;;;;;;;;;;;;;;;;;;5102319;28;20044;-73
2021/10/31 10:03:35;;;;;;;;;;;;;;;;;;5102579;28;19915;-73
2021/10/31 10:06:00;;;;;;;;;;;;;;;;;;5101904;28;19919;-73
2021/10/31 10:08:25;;;;;;;;;;;;;;;;;;5110577;28;19969;-74
2021/10/31 10:10:51;;;;;;;;;;;;;;;;;;5101990;28;20230;-73
2021/10/31 10:13:16;;;;;;;;;;;;;;;;;;5105928;28;19908;-74
2021/10/31 10:15:41;;;;;;;;;;;;;;;;;;5102545;28;19919;-74
2021/10/31 10:18:07;;;;;;;;;;;;;;;;;;5103326;28;19901;-74
2021/10/31 10:20:32;;;;;;;;;;;;;;;;;;5104394;28;19904;-74
2021/10/31 10:22:57;;;;;;;;;;;;;;;;;;5102381;28;19935;-72
2021/10/31 10:25:22;;;;;;;;;;;;;;;;;;5101167;28;19900;-72
2021/10/31 10:27:47;;;;;;;;;;;;;;;;;;5101765;28;19908;-72
2021/10/31 10:30:13;;;;;;;;;;;;;;;;;;5103382;28;19967;-72
2021/10/31 10:32:38;;;;;;;;;;;;;;;;;;5100085;28;19923;-73
2021/10/31 10:35:03;;;;;;;;;;;;;;;;;;5101527;28;19900;-74
2021/10/31 10:37:28;;;;;;;;;;;;;;;;;;5109036;28;19900;-73
2021/10/31 10:39:54;;;;;;;;;;;;;;;;;;5102648;28;19900;-74
2021/10/31 10:42:19;;;;;;;;;;;;;;;;;;5098972;28;19900;-74
2021/10/31 10:44:44;;;;;;;;;;;;;;;;;;5110307;28;19900;-74
2021/10/31 10:47:11;;;;;;;;;;;;;;;;;;5101487;28;19966;-73
2021/10/31 10:49:36;;;;;;;;;;;;;;;;;;5104213;28;19953;-74
2021/10/31 10:52:01;;;;;;;;;;;;;;;;;;5103852;28;19945;-73
2021/10/31 10:54:26;;;;;;;;;;;;;;;;;;5115783;28;19915;-73
2021/10/31 10:56:52;;;;;;;;;;;;;;;;;;5132084;28;19944;-73
2021/10/31 10:59:17;;;;;;;;;;;;;;;;;;5134235;28;19900;-73
2021/10/31 11:01:42;;;;;;;;;;;;;;;;;;5128711;28;20112;-73
2021/10/31 11:04:09;;;;;;;;;;;;;;;;;;5132893;28;19998;-73
2021/10/31 11:06:34;;;;;;;;;;;;;;;;;;5133664;28;19900;-73
2021/10/31 11:08:59;;;;;;;;;;;;;;;;;;5133723;28;19971;-73
2021/10/31 11:11:24;;;;;;;;;;;;;;;;;;5130015;28;19941;-74
2021/10/31 11:13:52;;;;;;;;;;;;;;;;;;5133474;28;19907;-74
2021/10/31 11:16:17;;;;;;;;;;;;;;;;;;5134753;28;19932;-74
2021/10/31 11:18:42;;;;;;;;;;;;;;;;;;5134581;28;19903;-74
2021/10/31 11:21:07;;;;;;;;;;;;;;;;;;5134740;28;19900;-74
2021/10/31 11:23:32;;;;;;;;;;;;;;;;;;5135238;28;19900;-74
2021/10/31 11:25:58;;;;;;;;;;;;;;;;;;5133514;28;19900;-74
2021/10/31 11:28:23;;;;;;;;;;;;;;;;;;5134179;28;19911;-74
2021/10/31 11:30:48;;;;;;;;;;;;;;;;;;5138072;28;20359;-74
2021/10/31 11:33:13;;;;;;;;;;;;;;;;;;5136890;28;19910;-74
2021/10/31 11:35:39;;;;;;;;;;;;;;;;;;5138092;28;19935;-74
2021/10/31 11:38:04;;;;;;;;;;;;;;;;;;5137617;28;19988;-74
2021/10/31 11:40:29;;;;;;;;;;;;;;;;;;5138752;28;20046;-74
2021/10/31 11:42:54;;;;;;;;;;;;;;;;;;5138460;28;19899;-74
2021/10/31 11:45:20;;;;;;;;;;;;;;;;;;5138521;28;19963;-73
2021/10/31 11:47:45;;;;;;;;;;;;;;;;;;5138808;28;19904;-72
2021/10/31 11:50:10;;;;;;;;;;;;;;;;;;5137496;28;19919;-73
2021/10/31 11:52:35;;;;;;;;;;;;;;;;;;5138759;28;19907;-73
2021/10/31 11:55:01;;;;;;;;;;;;;;;;;;5120887;28;19911;-74
2021/10/31 11:57:26;;;;;;;;;;;;;;;;;;5138189;28;19915;-74
2021/10/31 11:59:51;;;;;;;;;;;;;;;;;;5135558;28;19910;-74
2021/10/31 12:02:16;;;;;;;;;;;;;;;;;;5137493;28;19900;-73
2021/10/31 12:07:28;;;;;;;;;;;;;;;;;;5137036;28;19900;-73
2021/10/31 12:09:54;;;;;;;;;;;;;;;;;;5137165;28;19931;-73
2021/10/31 12:12:21;;;;;;;;;;;;;;;;;;5136708;28;19900;-73
2021/10/31 12:14:47;;;;;;;;;;;;;;;;;;5137183;27;19900;-73
2021/10/31 12:17:12;;;;;;;;;;;;;;;;;;5137746;28;19912;-74
2021/10/31 12:19:37;;;;;;;;;;;;;;;;;;5135417;28;19900;-74
2021/10/31 12:22:02;;;;;;;;;;;;;;;;;;5137588;27;19900;-73
2021/10/31 12:24:28;;;;;;;;;;;;;;;;;;5135574;28;19904;-73
2021/10/31 12:26:54;;;;;;;;;;;;;;;;;;5136991;28;20170;-74
2021/10/31 12:29:19;;;;;;;;;;;;;;;;;;5136711;28;19907;-74
2021/10/31 12:31:44;;;;;;;;;;;;;;;;;;5137609;28;19963;-74
2021/10/31 12:34:10;;;;;;;;;;;;;;;;;;5137442;28;19896;-73
2021/10/31 12:36:35;;;;;;;;;;;;;;;;;;5137742;28;19926;-73
2021/10/31 12:39:00;;;;;;;;;;;;;;;;;;5136980;28;19924;-73
2021/10/31 12:41:40;;;;;;;;;;;;;;;;;;5136595;28;19939;-73
2021/10/31 12:44:05;;;;;;;;;;;;;;;;;;5137142;28;19957;-73
2021/10/31 12:46:32;;;;;;;;;;;;;;;;;;5134729;28;20150;-73
2021/10/31 12:48:57;;;;;;;;;;;;;;;;;;5136746;28;19900;-73
2021/10/31 12:51:23;;;;;;;;;;;;;;;;;;5135852;27;19915;-73
2021/10/31 12:53:50;;;;;;;;;;;;;;;;;;5136551;28;19900;-73
2021/10/31 12:56:15;;;;;;;;;;;;;;;;;;5137198;28;19900;-73
2021/10/31 12:58:40;;;;;;;;;;;;;;;;;;5133946;28;19920;-73
2021/10/31 13:01:05;;;;;;;;;;;;;;;;;;5137048;27;19927;-73
2021/10/31 13:03:31;;;;;;;;;;;;;;;;;;5135893;28;19915;-73
2021/10/31 13:05:56;;;;;;;;;;;;;;;;;;5136873;28;19914;-73
2021/10/31 13:08:21;;;;;;;;;;;;;;;;;;5137199;28;19908;-73
2021/10/31 13:10:48;;;;;;;;;;;;;;;;;;5135973;28;19896;-73
2021/10/31 13:13:15;;;;;;;;;;;;;;;;;;5136183;28;19906;-73
2021/10/31 13:15:40;;;;;;;;;;;;;;;;;;5135833;27;19933;-73
2021/10/31 13:18:05;;;;;;;;;;;;;;;;;;5135251;28;19907;-73
2021/10/31 13:20:31;;;;;;;;;;;;;;;;;;5136855;28;20229;-74
2021/10/31 13:23:00;;;;;;;;;;;;;;;;;;5137063;28;19900;-73
2021/10/31 13:25:26;;;;;;;;;;;;;;;;;;5135794;28;20005;-73
2021/10/31 13:27:54;;;;;;;;;;;;;;;;;;5136672;28;19900;-73
2021/10/31 13:30:19;;;;;;;;;;;;;;;;;;5125263;28;19972;-73
2021/10/31 13:32:44;;;;;;;;;;;;;;;;;;5135476;28;19919;-73
2021/10/31 13:35:09;;;;;;;;;;;;;;;;;;5135548;28;19908;-73
2021/10/31 13:37:35;;;;;;;;;;;;;;;;;;5136498;28;19908;-74
2021/10/31 13:40:00;;;;;;;;;;;;;;;;;;5135139;28;19911;-73
2021/10/31 13:42:25;;;;;;;;;;;;;;;;;;5134278;28;19900;-73
2021/10/31 13:44:50;;;;;;;;;;;;;;;;;;5134905;28;19907;-73
2021/10/31 13:47:27;;;;;;;;;;;;;;;;;;5135650;28;19904;-74
2021/10/31 13:49:55;;;;;;;;;;;;;;;;;;5135666;27;19900;-73
2021/10/31 13:52:20;;;;;;;;;;;;;;;;;;5135713;28;19918;-74
2021/10/31 13:54:48;;;;;;;;;;;;;;;;;;5136133;28;19899;-73
2021/10/31 13:57:14;;;;;;;;;;;;;;;;;;5135849;28;19900;-74
2021/10/31 13:59:39;;;;;;;;;;;;;;;;;;5136460;28;19910;-74
2021/10/31 14:02:04;;;;;;;;;;;;;;;;;;5136414;28;19906;-74
2021/10/31 14:04:30;;;;;;;;;;;;;;;;;;5135806;28;19928;-73
2021/10/31 14:06:55;;;;;;;;;;;;;;;;;;5136076;28;19935;-73
2021/10/31 14:09:21;;;;;;;;;;;;;;;;;;5134689;28;19916;-73
2021/10/31 14:11:46;;;;;;;;;;;;;;;;;;5131961;28;19904;-73
2021/10/31 14:14:11;;;;;;;;;;;;;;;;;;5125357;28;19911;-73
2021/10/31 14:16:36;;;;;;;;;;;;;;;;;;5134754;28;19963;-73
2021/10/31 14:19:02;;;;;;;;;;;;;;;;;;5130217;28;19915;-72
2021/10/31 14:21:27;;;;;;;;;;;;;;;;;;5127220;28;19915;-73
2021/10/31 14:23:54;;;;;;;;;;;;;;;;;;5132955;28;19938;-73
2021/10/31 14:26:21;;;;;;;;;;;;;;;;;;5128160;28;20222;-73
2021/10/31 14:28:46;;;;;;;;;;;;;;;;;;5133544;28;19900;-73
2021/10/31 14:31:11;;;;;;;;;;;;;;;;;;5127944;28;19911;-73
2021/10/31 14:33:37;;;;;;;;;;;;;;;;;;5126225;28;19900;-73
2021/10/31 14:36:02;;;;;;;;;;;;;;;;;;5135077;28;19908;-73
2021/10/31 14:38:27;;;;;;;;;;;;;;;;;;5129492;28;19908;-73
2021/10/31 14:40:52;;;;;;;;;;;;;;;;;;5133154;28;19896;-73
2021/10/31 14:43:18;;;;;;;;;;;;;;;;;;5128678;28;19900;-73
2021/10/31 14:45:43;;;;;;;;;;;;;;;;;;5127711;28;19918;-72
2021/10/31 14:48:08;;;;;;;;;;;;;;;;;;5132362;28;19939;-72
2021/10/31 14:50:33;;;;;;;;;;;;;;;;;;5128339;28;19903;-72
2021/10/31 14:52:59;;;;;;;;;;;;;;;;;;5133738;28;19908;-72
2021/10/31 14:55:24;;;;;;;;;;;;;;;;;;5126995;28;19971;-72
2021/10/31 14:57:54;;;;;;;;;;;;;;;;;;5127747;28;19907;-71
2021/10/31 15:00:23;;;;;;;;;;;;;;;;;;5133194;28;19900;-72
2021/10/31 15:02:49;;;;;;;;;;;;;;;;;;5127245;28;19900;-71
2021/10/31 15:05:14;;;;;;;;;;;;;;;;;;5135268;28;19953;-71
2021/10/31 15:07:39;;;;;;;;;;;;;;;;;;5133140;28;19904;-72
2021/10/31 15:10:04;;;;;;;;;;;;;;;;;;5132451;28;20169;-71
2021/10/31 15:12:32;;;;;;;;;;;;;;;;;;5136226;28;19915;-71
2021/10/31 15:14:58;;;;;;;;;;;;;;;;;;5131212;28;19918;-70
2021/10/31 15:17:24;;;;;;;;;;;;;;;;;;5134723;28;19916;-70
2021/10/31 15:19:51;;;;;;;;;;;;;;;;;;5128023;28;19914;-70
2021/10/31 15:22:16;;;;;;;;;;;;;;;;;;5131099;28;19927;-70
2021/10/31 15:24:41;;;;;;;;;;;;;;;;;;5136619;28;19903;-71
2021/10/31 15:27:06;;;;;;;;;;;;;;;;;;5129122;28;19929;-71
2021/10/31 15:29:32;;;;;;;;;;;;;;;;;;5138341;28;19925;-71
2021/10/31 15:31:57;;;;;;;;;;;;;;;;;;5130310;28;19978;-71
2021/10/31 15:34:22;;;;;;;;;;;;;;;;;;5127637;28;19912;-71
2021/10/31 15:36:47;;;;;;;;;;;;;;;;;;5137690;28;19935;-71
2021/10/31 15:39:13;;;;;;;;;;;;;;;;;;5127847;28;19941;-71
2021/10/31 15:41:38;;;;;;;;;;;;;;;;;;5137782;27;20056;-71
2021/10/31 15:44:03;;;;;;;;;;;;;;;;;;5129888;28;19961;-71
2021/10/31 15:46:29;;;;;;;;;;;;;;;;;;5128347;28;19900;-70
2021/10/31 15:48:54;;;;;;;;;;;;;;;;;;5127403;28;19900;-71
2021/10/31 15:51:19;;;;;;;;;;;;;;;;;;5132124;28;20189;-71
2021/10/31 15:53:44;;;;;;;;;;;;;;;;;;5137036;28;19978;-71
2021/10/31 15:56:09;;;;;;;;;;;;;;;;;;5130370;28;19971;-71
2021/10/31 15:58:35;;;;;;;;;;;;;;;;;;5130096;28;19951;-70
2021/10/31 16:01:00;;;;;;;;;;;;;;;;;;5135716;28;19911;-71
2021/10/31 16:03:27;;;;;;;;;;;;;;;;;;5130188;28;20003;-70
2021/10/31 16:05:58;;;;;;;;;;;;;;;;;;5136922;28;19958;-70
2021/10/31 16:08:23;;;;;;;;;;;;;;;;;;5130290;28;19907;-70
2021/10/31 16:10:48;;;;;;;;;;;;;;;;;;5130322;28;19915;-70
2021/10/31 16:13:16;;;;;;;;;;;;;;;;;;5135178;27;19948;-72
2021/10/31 16:15:42;;;;;;;;;;;;;;;;;;5146933;27;20983;-71
2021/10/31 16:18:10;;;;;;;;;;;;;;;;;;5135197;28;19918;-71
2021/10/31 16:20:35;;;;;;;;;;;;;;;;;;5128903;28;19904;-71
2021/10/31 16:23:00;;;;;;;;;;;;;;;;;;5131735;28;19923;-70
2021/10/31 16:25:27;;;;;;;;;;;;;;;;;;5135440;28;20219;-70
2021/10/31 16:27:53;;;;;;;;;;;;;;;;;;5128579;28;19900;-71
2021/10/31 16:30:18;;;;;;;;;;;;;;;;;;5135006;28;19911;-71
2021/10/31 16:32:43;;;;;;;;;;;;;;;;;;5129006;28;19973;-71
2021/10/31 16:35:09;;;;;;;;;;;;;;;;;;5124138;28;19989;-70
2021/10/31 16:37:34;;;;;;;;;;;;;;;;;;5134102;27;19907;-72